createdAt,value
2019-05-14T00:00:28.704Z,0.00
2019-05-14T00:01:31.287Z,0.00
2019-05-14T00:02:46.701Z,0.00
2019-05-14T00:03:47.129Z,0.00
2019-05-14T00:04:54.185Z,0.00
2019-05-14T00:05:54.639Z,0.00
2019-05-14T00:08:11.469Z,0.00
2019-05-14T00:09:18.682Z,0.00
2019-05-14T00:10:19.104Z,0.00
2019-05-14T00:11:22.045Z,0.00
2019-05-14T00:12:22.551Z,0.00
2019-05-14T00:13:24.079Z,0.00
2019-05-14T00:14:35.726Z,0.00
2019-05-14T00:15:32.361Z,0.00
2019-05-14T00:16:32.841Z,0.00
2019-05-14T00:17:41.696Z,0.00
2019-05-14T00:18:42.362Z,0.00
2019-05-14T00:20:07.268Z,0.00
2019-05-14T00:21:06.146Z,0.00
2019-05-14T00:22:06.693Z,0.00
2019-05-14T00:23:07.133Z,0.00
2019-05-14T00:24:22.162Z,0.00
2019-05-14T00:25:22.620Z,0.00
2019-05-14T00:26:32.659Z,0.00
2019-05-14T00:27:33.095Z,0.00
2019-05-14T00:28:42.059Z,0.00
2019-05-14T00:29:42.737Z,0.00
2019-05-14T00:30:45.232Z,0.00
2019-05-14T00:31:45.666Z,0.00
2019-05-14T00:32:47.153Z,0.00
2019-05-14T00:33:47.587Z,0.00
2019-05-14T00:34:51.375Z,0.00
2019-05-14T00:35:52.116Z,0.00
2019-05-14T00:36:54.655Z,0.00
2019-05-14T00:37:55.089Z,0.00
2019-05-14T00:38:57.646Z,0.00
2019-05-14T00:39:58.082Z,0.00
2019-05-14T00:41:03.628Z,0.00
2019-05-14T00:42:04.054Z,0.00
2019-05-14T00:43:06.493Z,0.00
2019-05-14T00:44:06.946Z,0.00
2019-05-14T00:45:31.261Z,0.00
2019-05-14T00:46:31.880Z,0.00
2019-05-14T00:50:07.386Z,0.00
2019-05-14T00:51:43.359Z,0.00
2019-05-14T00:52:46.286Z,0.00
2019-05-14T00:53:48.939Z,0.00
2019-05-14T00:54:51.972Z,0.00
2019-05-14T00:55:53.773Z,0.00
2019-05-14T00:56:54.205Z,0.00
2019-05-14T01:00:54.350Z,0.00
2019-05-14T01:02:23.679Z,0.00
2019-05-14T01:03:24.116Z,0.00
2019-05-14T01:07:28.920Z,0.00
2019-05-14T01:08:36.138Z,0.00
2019-05-14T01:09:36.563Z,0.00
2019-05-14T01:10:38.100Z,0.00
2019-05-14T01:11:38.546Z,0.00
2019-05-14T01:12:45.585Z,0.00
2019-05-14T01:13:46.015Z,0.00
2019-05-14T01:14:48.466Z,0.00
2019-05-14T01:15:48.936Z,0.00
2019-05-14T01:16:57.080Z,0.00
2019-05-14T01:17:57.518Z,0.00
2019-05-14T01:19:02.112Z,0.00
2019-05-14T01:20:03.234Z,0.00
2019-05-14T01:21:11.511Z,0.00
2019-05-14T01:22:12.665Z,0.00
2019-05-14T01:23:29.071Z,0.00
2019-05-14T01:24:29.512Z,0.00
2019-05-14T01:25:38.609Z,0.00
2019-05-14T01:26:39.054Z,0.00
2019-05-14T01:27:41.624Z,0.00
2019-05-14T01:28:42.060Z,0.00
2019-05-14T01:29:42.838Z,0.00
2019-05-14T01:30:43.317Z,0.00
2019-05-14T01:31:49.137Z,0.00
2019-05-14T01:32:51.234Z,0.00
2019-05-14T01:33:53.820Z,0.00
2019-05-14T01:34:54.252Z,0.00
2019-05-14T01:36:02.252Z,0.00
2019-05-14T01:37:02.795Z,0.00
2019-05-14T01:38:11.525Z,0.00
2019-05-14T01:39:12.281Z,0.00
2019-05-14T01:40:12.804Z,0.00
2019-05-14T01:41:13.242Z,0.00
2019-05-14T01:42:22.646Z,0.00
2019-05-14T01:43:23.071Z,0.00
2019-05-14T01:44:24.610Z,0.00
2019-05-14T01:45:28.267Z,0.00
2019-05-14T01:46:31.698Z,0.00
2019-05-14T01:47:32.257Z,0.00
2019-05-14T01:48:32.739Z,0.00
2019-05-14T01:49:33.161Z,0.00
2019-05-14T01:50:33.577Z,0.00
2019-05-14T01:51:34.065Z,0.00
2019-05-14T01:52:34.492Z,0.00
2019-05-14T01:53:34.920Z,0.00
2019-05-14T01:54:35.344Z,0.00
2019-05-14T01:55:35.852Z,0.00
2019-05-14T01:56:36.306Z,0.00
2019-05-14T01:57:36.794Z,0.00
2019-05-14T01:58:37.226Z,0.00
2019-05-14T01:59:37.727Z,0.00
2019-05-14T02:00:38.161Z,0.00
2019-05-14T02:01:41.118Z,0.00
2019-05-14T02:02:42.014Z,0.00
2019-05-14T02:03:42.469Z,0.00
2019-05-14T02:04:43.047Z,0.00
2019-05-14T02:05:43.502Z,0.00
2019-05-14T02:06:43.946Z,0.00
2019-05-14T02:07:44.435Z,0.00
2019-05-14T02:08:44.879Z,0.00
2019-05-14T02:09:45.375Z,0.00
2019-05-14T02:10:45.813Z,0.00
2019-05-14T02:11:46.349Z,0.00
2019-05-14T02:12:46.784Z,0.00
2019-05-14T02:13:48.516Z,0.00
2019-05-14T02:14:51.105Z,0.00
2019-05-14T02:15:52.172Z,0.00
2019-05-14T02:16:52.689Z,0.00
2019-05-14T02:17:53.208Z,0.00
2019-05-14T02:18:53.645Z,0.00
2019-05-14T02:19:54.143Z,0.00
2019-05-14T02:20:54.573Z,0.00
2019-05-14T02:21:55.118Z,0.00
2019-05-14T02:22:55.544Z,0.00
2019-05-14T02:23:56.098Z,0.00
2019-05-14T02:24:56.523Z,0.00
2019-05-14T02:25:57.083Z,0.00
2019-05-14T02:26:57.540Z,0.00
2019-05-14T02:28:01.169Z,0.00
2019-05-14T02:29:02.132Z,0.00
2019-05-14T02:30:02.658Z,0.00
2019-05-14T02:31:04.112Z,0.00
2019-05-14T02:32:04.733Z,0.00
2019-05-14T02:33:05.186Z,0.00
2019-05-14T02:34:05.628Z,0.00
2019-05-14T02:35:09.602Z,0.00
2019-05-14T02:36:10.669Z,0.00
2019-05-14T02:37:11.215Z,0.00
2019-05-14T02:38:11.667Z,0.00
2019-05-14T02:39:12.108Z,0.00
2019-05-14T02:40:12.573Z,0.00
2019-05-14T02:41:13.074Z,0.00
2019-05-14T02:42:13.527Z,0.00
2019-05-14T02:43:13.966Z,0.00
2019-05-14T02:44:14.401Z,0.00
2019-05-14T02:45:14.833Z,0.00
2019-05-14T02:46:17.387Z,0.00
2019-05-14T02:47:21.706Z,0.00
2019-05-14T02:48:22.150Z,0.00
2019-05-14T02:49:22.582Z,0.00
2019-05-14T02:50:23.029Z,0.00
2019-05-14T02:51:23.465Z,0.00
2019-05-14T02:52:23.930Z,0.00
2019-05-14T02:53:24.365Z,0.00
2019-05-14T02:54:25.820Z,0.00
2019-05-14T02:55:29.978Z,0.00
2019-05-14T02:56:30.623Z,0.00
2019-05-14T02:57:31.066Z,0.00
2019-05-14T02:58:31.588Z,0.00
2019-05-14T02:59:32.024Z,0.00
2019-05-14T03:00:32.457Z,0.00
2019-05-14T03:01:32.905Z,0.00
2019-05-14T03:02:33.360Z,0.00
2019-05-14T03:03:33.804Z,0.00
2019-05-14T03:04:35.242Z,0.00
2019-05-14T03:05:35.678Z,0.00
2019-05-14T03:06:39.253Z,0.00
2019-05-14T03:07:40.075Z,0.00
2019-05-14T03:08:40.518Z,0.00
2019-05-14T03:09:40.961Z,0.00
2019-05-14T03:10:42.411Z,0.00
2019-05-14T03:11:42.873Z,4.00
2019-05-14T03:12:43.316Z,4.00
2019-05-14T03:13:43.753Z,0.00
2019-05-14T03:14:44.199Z,0.00
2019-05-14T03:15:44.636Z,4.00
2019-05-14T03:16:45.100Z,4.00
2019-05-14T03:17:45.536Z,0.00
2019-05-14T03:18:45.983Z,16.00
2019-05-14T03:19:49.312Z,12.00
2019-05-14T03:20:50.562Z,16.00
2019-05-14T03:21:51.128Z,4.00
2019-05-14T03:23:03.297Z,4.00
2019-05-14T03:24:00.837Z,8.00
2019-05-14T03:25:01.559Z,8.00
2019-05-14T03:26:02.004Z,12.00
2019-05-14T03:27:02.536Z,12.00
2019-05-14T03:28:02.998Z,12.00
2019-05-14T03:29:03.533Z,12.00
2019-05-14T03:30:03.976Z,12.00
2019-05-14T03:31:04.701Z,16.00
2019-05-14T03:32:05.193Z,20.00
2019-05-14T03:33:05.739Z,20.00
2019-05-14T03:34:06.172Z,24.00
2019-05-14T03:35:12.383Z,24.00
2019-05-14T03:36:17.753Z,28.00
2019-05-14T03:37:23.306Z,32.00
2019-05-14T03:38:24.914Z,40.00
2019-05-14T03:39:25.342Z,40.00
2019-05-14T03:40:25.780Z,40.00
2019-05-14T03:41:26.223Z,44.00
2019-05-14T03:42:29.249Z,44.00
2019-05-14T03:43:29.991Z,48.00
2019-05-14T03:44:30.567Z,56.00
2019-05-14T03:45:31.039Z,56.00
2019-05-14T03:46:43.940Z,56.00
2019-05-14T03:47:39.340Z,60.00
2019-05-14T03:48:40.325Z,64.00
2019-05-14T03:49:41.888Z,68.00
2019-05-14T03:50:42.325Z,72.00
2019-05-14T03:51:42.785Z,76.00
2019-05-14T03:52:43.266Z,80.00
2019-05-14T03:53:57.052Z,92.00
2019-05-14T03:54:50.204Z,96.00
2019-05-14T03:55:50.863Z,100.00
2019-05-14T03:56:51.321Z,108.00
2019-05-14T03:57:51.788Z,116.00
2019-05-14T03:58:52.313Z,132.00
2019-05-14T03:59:52.737Z,144.00
2019-05-14T04:00:53.187Z,136.00
2019-05-14T04:01:53.621Z,148.00
2019-05-14T04:02:54.075Z,156.00
2019-05-14T04:03:54.518Z,172.00
2019-05-14T04:04:54.978Z,180.00
2019-05-14T04:05:55.415Z,192.00
2019-05-14T04:06:55.851Z,204.00
2019-05-14T04:07:56.303Z,236.00
2019-05-14T04:09:00.285Z,212.00
2019-05-14T04:10:01.134Z,216.00
2019-05-14T04:11:01.565Z,228.00
2019-05-14T04:12:02.024Z,244.00
2019-05-14T04:13:02.480Z,232.00
2019-05-14T04:14:02.910Z,248.00
2019-05-14T04:15:03.370Z,248.00
2019-05-14T04:16:03.849Z,236.00
2019-05-14T04:17:09.793Z,248.00
2019-05-14T04:18:10.761Z,260.00
2019-05-14T04:19:11.209Z,272.00
2019-05-14T04:20:11.729Z,288.00
2019-05-14T04:21:12.197Z,340.00
2019-05-14T04:22:12.663Z,376.00
2019-05-14T04:23:13.199Z,424.00
2019-05-14T04:24:13.622Z,432.00
2019-05-14T04:25:14.094Z,480.00
2019-05-14T04:26:14.637Z,468.00
2019-05-14T04:27:15.100Z,480.00
2019-05-14T04:28:19.129Z,460.00
2019-05-14T04:30:39.889Z,460.00
2019-05-14T04:31:40.695Z,460.00
2019-05-14T04:32:41.254Z,472.00
2019-05-14T04:33:42.870Z,492.00
2019-05-14T04:34:43.317Z,516.00
2019-05-14T04:35:44.832Z,512.00
2019-05-14T04:36:45.271Z,476.00
2019-05-14T04:37:54.607Z,428.00
2019-05-14T04:38:55.513Z,396.00
2019-05-14T04:40:04.111Z,384.00
2019-05-14T04:41:04.545Z,404.00
2019-05-14T04:42:04.972Z,468.00
2019-05-14T04:43:09.961Z,532.00
2019-05-14T04:44:10.682Z,560.00
2019-05-14T04:45:32.202Z,588.00
2019-05-14T04:46:32.658Z,608.00
2019-05-14T04:47:41.014Z,620.00
2019-05-14T04:48:44.178Z,648.00
2019-05-14T04:49:52.615Z,704.00
2019-05-14T04:50:53.059Z,696.00
2019-05-14T04:51:53.543Z,760.00
2019-05-14T04:52:53.990Z,860.00
2019-05-14T04:54:09.671Z,880.00
2019-05-14T04:55:10.290Z,924.00
2019-05-14T04:56:25.518Z,936.00
2019-05-14T04:57:25.980Z,972.00
2019-05-14T04:58:45.554Z,1028.00
2019-05-14T04:59:49.137Z,964.00
2019-05-14T05:01:05.586Z,856.00
2019-05-14T05:02:09.227Z,820.00
2019-05-14T05:03:12.614Z,800.00
2019-05-14T05:04:13.550Z,840.00
2019-05-14T05:05:14.029Z,848.00
2019-05-14T05:06:14.473Z,828.00
2019-05-14T05:07:31.550Z,804.00
2019-05-14T05:08:32.000Z,744.00
2019-05-14T05:10:55.920Z,724.00
2019-05-14T05:12:11.990Z,716.00
2019-05-14T05:13:12.437Z,724.00
2019-05-14T05:14:12.880Z,740.00
2019-05-14T05:15:13.326Z,744.00
2019-05-14T05:16:13.769Z,716.00
2019-05-14T05:17:14.210Z,744.00
2019-05-14T05:18:19.016Z,768.00
2019-05-14T05:19:19.815Z,708.00
2019-05-14T05:20:20.289Z,696.00
2019-05-14T05:21:20.726Z,672.00
2019-05-14T05:22:21.161Z,672.00
2019-05-14T05:23:21.600Z,704.00
2019-05-14T05:24:22.030Z,748.00
2019-05-14T05:25:22.466Z,792.00
2019-05-14T05:26:29.501Z,804.00
2019-05-14T05:27:29.924Z,824.00
2019-05-14T05:28:35.521Z,824.00
2019-05-14T05:29:35.970Z,760.00
2019-05-14T05:30:38.545Z,720.00
2019-05-14T05:31:39.130Z,700.00
2019-05-14T05:32:49.436Z,720.00
2019-05-14T05:33:50.099Z,788.00
2019-05-14T05:34:52.556Z,780.00
2019-05-14T05:35:52.986Z,752.00
2019-05-14T05:36:53.431Z,712.00
2019-05-14T05:37:53.882Z,656.00
2019-05-14T05:38:54.335Z,584.00
2019-05-14T05:39:54.791Z,616.00
2019-05-14T05:40:56.779Z,620.00
2019-05-14T05:42:00.025Z,596.00
2019-05-14T05:43:00.470Z,600.00
2019-05-14T05:44:00.975Z,604.00
2019-05-14T05:45:01.465Z,608.00
2019-05-14T05:46:01.972Z,600.00
2019-05-14T05:47:02.407Z,640.00
2019-05-14T05:48:02.910Z,644.00
2019-05-14T05:49:03.359Z,644.00
2019-05-14T05:50:03.850Z,636.00
2019-05-14T05:51:04.289Z,632.00
2019-05-14T05:52:04.788Z,656.00
2019-05-14T05:53:05.226Z,644.00
2019-05-14T05:54:05.748Z,652.00
2019-05-14T05:55:06.177Z,648.00
2019-05-14T05:56:08.927Z,648.00
2019-05-14T05:57:09.616Z,656.00
2019-05-14T05:58:10.148Z,668.00
2019-05-14T05:59:10.731Z,664.00
2019-05-14T06:00:11.194Z,672.00
2019-05-14T06:01:11.630Z,676.00
2019-05-14T06:02:12.123Z,684.00
2019-05-14T06:03:13.346Z,696.00
2019-05-14T06:04:13.910Z,696.00
2019-05-14T06:05:14.353Z,700.00
2019-05-14T06:06:14.808Z,700.00
2019-05-14T06:07:15.250Z,708.00
2019-05-14T06:08:15.742Z,724.00
2019-05-14T06:09:18.241Z,732.00
2019-05-14T06:10:19.165Z,728.00
2019-05-14T06:11:19.746Z,732.00
2019-05-14T06:12:21.835Z,736.00
2019-05-14T06:13:22.388Z,740.00
2019-05-14T06:14:22.888Z,752.00
2019-05-14T06:15:23.325Z,764.00
2019-05-14T06:16:23.894Z,768.00
2019-05-14T06:17:24.330Z,780.00
2019-05-14T06:18:24.756Z,784.00
2019-05-14T06:19:25.308Z,780.00
2019-05-14T06:20:28.236Z,788.00
2019-05-14T06:21:29.204Z,808.00
2019-05-14T06:22:29.950Z,820.00
2019-05-14T06:23:30.383Z,832.00
2019-05-14T06:24:30.912Z,840.00
2019-05-14T06:25:31.542Z,856.00
2019-05-14T06:26:32.112Z,868.00
2019-05-14T06:27:32.549Z,868.00
2019-05-14T06:28:33.689Z,868.00
2019-05-14T06:29:34.261Z,876.00
2019-05-14T06:30:34.705Z,892.00
2019-05-14T06:31:35.148Z,912.00
2019-05-14T06:32:38.423Z,944.00
2019-05-14T06:33:39.666Z,912.00
2019-05-14T06:34:40.291Z,916.00
2019-05-14T06:35:40.734Z,960.00
2019-05-14T06:36:41.193Z,960.00
2019-05-14T06:37:41.622Z,960.00
2019-05-14T06:38:42.131Z,984.00
2019-05-14T06:39:42.578Z,1020.00
2019-05-14T06:40:43.075Z,1012.00
2019-05-14T06:41:43.512Z,1008.00
2019-05-14T06:42:43.995Z,1056.00
2019-05-14T06:43:44.420Z,1064.00
2019-05-14T06:44:44.965Z,1116.00
2019-05-14T06:45:45.405Z,1168.00
2019-05-14T06:46:48.437Z,1212.00
2019-05-14T06:47:49.567Z,1300.00
2019-05-14T06:48:50.040Z,1368.00
2019-05-14T06:49:50.469Z,1404.00
2019-05-14T06:50:50.903Z,1420.00
2019-05-14T06:51:53.349Z,1408.00
2019-05-14T06:52:53.796Z,1436.00
2019-05-14T06:53:54.241Z,1484.00
2019-05-14T06:54:54.731Z,1532.00
2019-05-14T06:55:55.157Z,1568.00
2019-05-14T06:56:58.117Z,1612.00
2019-05-14T06:57:58.752Z,1612.00
2019-05-14T06:58:59.206Z,1644.00
2019-05-14T06:59:59.631Z,1528.00
2019-05-14T07:01:00.060Z,1388.00
2019-05-14T07:02:00.513Z,1404.00
2019-05-14T07:03:00.947Z,1528.00
2019-05-14T07:04:01.480Z,1688.00
2019-05-14T07:05:01.915Z,1760.00
2019-05-14T07:06:02.346Z,1728.00
2019-05-14T07:07:04.863Z,1924.00
2019-05-14T07:08:05.295Z,2024.00
2019-05-14T07:09:08.056Z,2116.00
2019-05-14T07:10:09.086Z,2144.00
2019-05-14T07:11:10.709Z,2020.00
2019-05-14T07:12:11.152Z,2112.00
2019-05-14T07:13:11.573Z,2228.00
2019-05-14T07:14:12.067Z,2292.00
2019-05-14T07:15:12.508Z,2160.00
2019-05-14T07:16:14.020Z,2420.00
2019-05-14T07:17:14.450Z,2428.00
2019-05-14T07:18:14.948Z,2364.00
2019-05-14T07:19:16.024Z,2268.00
2019-05-14T07:20:19.467Z,2356.00
2019-05-14T07:21:19.898Z,2696.00
2019-05-14T07:22:20.408Z,3084.00
2019-05-14T07:23:20.835Z,3076.00
2019-05-14T07:24:21.357Z,3064.00
2019-05-14T07:25:21.784Z,3056.00
2019-05-14T07:26:22.267Z,3044.00
2019-05-14T07:27:22.716Z,3032.00
2019-05-14T07:28:23.214Z,2572.00
2019-05-14T07:29:23.662Z,2596.00
2019-05-14T07:30:24.130Z,2620.00
2019-05-14T07:31:25.254Z,2644.00
2019-05-14T07:32:28.538Z,2660.00
2019-05-14T07:33:29.609Z,2040.00
2019-05-14T07:34:30.755Z,2380.00
2019-05-14T07:35:31.201Z,2808.00
2019-05-14T07:36:31.647Z,2808.00
2019-05-14T07:37:32.087Z,3236.00
2019-05-14T07:38:32.583Z,3200.00
2019-05-14T07:39:33.035Z,3176.00
2019-05-14T07:40:33.518Z,3180.00
2019-05-14T07:41:34.004Z,3196.00
2019-05-14T07:42:34.552Z,3220.00
2019-05-14T07:43:34.990Z,3224.00
2019-05-14T07:44:35.542Z,3212.00
2019-05-14T07:45:38.387Z,2840.00
2019-05-14T07:46:39.110Z,2812.00
2019-05-14T07:47:39.549Z,2808.00
2019-05-14T07:48:39.976Z,2784.00
2019-05-14T07:49:40.479Z,2832.00
2019-05-14T07:50:40.904Z,2852.00
2019-05-14T07:51:41.373Z,2864.00
2019-05-14T07:52:45.736Z,2876.00
2019-05-14T07:53:48.531Z,2880.00
2019-05-14T07:54:49.324Z,2872.00
2019-05-14T07:55:49.768Z,2868.00
2019-05-14T07:56:52.943Z,2856.00
2019-05-14T07:57:53.703Z,2868.00
2019-05-14T07:58:54.136Z,2888.00
2019-05-14T07:59:54.597Z,2884.00
2019-05-14T08:00:55.031Z,2892.00
2019-05-14T08:01:55.563Z,2904.00
2019-05-14T08:02:58.073Z,2900.00
2019-05-14T08:04:00.127Z,2896.00
2019-05-14T08:05:00.770Z,2880.00
2019-05-14T08:06:01.243Z,2940.00
2019-05-14T08:07:01.685Z,2916.00
2019-05-14T08:08:02.123Z,2940.00
2019-05-14T08:09:02.560Z,2952.00
2019-05-14T08:10:03.036Z,2908.00
2019-05-14T08:11:03.468Z,2880.00
2019-05-14T08:12:04.953Z,2816.00
2019-05-14T08:13:05.379Z,2792.00
2019-05-14T08:14:05.895Z,2704.00
2019-05-14T08:15:15.333Z,2600.00
2019-05-14T08:16:12.818Z,2896.00
2019-05-14T08:17:14.410Z,2932.00
2019-05-14T08:18:14.885Z,2888.00
2019-05-14T08:19:24.168Z,2896.00
2019-05-14T08:20:21.909Z,2908.00
2019-05-14T08:21:22.426Z,2912.00
2019-05-14T08:22:22.852Z,2924.00
2019-05-14T08:23:23.379Z,2948.00
2019-05-14T08:24:27.180Z,2928.00
2019-05-14T08:25:30.269Z,2964.00
2019-05-14T08:26:30.713Z,3032.00
2019-05-14T08:27:32.181Z,3076.00
2019-05-14T08:28:33.483Z,2960.00
2019-05-14T08:29:39.152Z,2948.00
2019-05-14T08:30:40.346Z,2936.00
2019-05-14T08:31:40.823Z,2892.00
2019-05-14T08:32:41.260Z,2908.00
2019-05-14T08:33:42.770Z,2908.00
2019-05-14T08:34:43.225Z,2912.00
2019-05-14T08:36:00.503Z,2928.00
2019-05-14T08:37:03.938Z,2828.00
2019-05-14T08:38:08.518Z,868.00
2019-05-14T08:39:11.218Z,3000.00
2019-05-14T08:40:16.368Z,2968.00
2019-05-14T08:41:19.869Z,3020.00
2019-05-14T08:42:20.621Z,3064.00
2019-05-14T08:43:21.052Z,3140.00
2019-05-14T08:44:21.553Z,3108.00
2019-05-14T08:45:22.010Z,2660.00
2019-05-14T08:46:22.474Z,3684.00
2019-05-14T08:47:22.922Z,4020.00
2019-05-14T08:48:23.414Z,3780.00
2019-05-14T08:49:37.734Z,3716.00
2019-05-14T08:50:30.269Z,3400.00
2019-05-14T08:51:30.815Z,3448.00
2019-05-14T08:52:31.262Z,4008.00
2019-05-14T08:53:31.796Z,3384.00
2019-05-14T08:54:32.234Z,2452.00
2019-05-14T08:55:32.715Z,2112.00
2019-05-14T08:56:33.146Z,3300.00
2019-05-14T08:57:34.244Z,3356.00
2019-05-14T08:58:34.807Z,3640.00
2019-05-14T08:59:35.246Z,3544.00
2019-05-14T09:00:35.708Z,3804.00
2019-05-14T09:01:38.535Z,4252.00
2019-05-14T09:02:39.492Z,4672.00
2019-05-14T09:03:39.968Z,3612.00
2019-05-14T09:04:43.003Z,3260.00
2019-05-14T09:05:49.245Z,3256.00
2019-05-14T09:06:49.828Z,3396.00
2019-05-14T09:07:50.332Z,3380.00
2019-05-14T09:08:50.701Z,1740.00
2019-05-14T09:09:51.175Z,4196.00
2019-05-14T09:10:51.637Z,5372.00
2019-05-14T09:11:52.102Z,5524.00
2019-05-14T09:12:52.527Z,4880.00
2019-05-14T09:13:53.036Z,4496.00
2019-05-14T09:14:53.478Z,2828.00
2019-05-14T09:15:54.000Z,2908.00
2019-05-14T09:16:54.442Z,6200.00
2019-05-14T09:17:54.868Z,6072.00
2019-05-14T09:18:55.323Z,5208.00
2019-05-14T09:20:05.715Z,4300.00
2019-05-14T09:21:02.188Z,4880.00
2019-05-14T09:22:02.725Z,5244.00
2019-05-14T09:23:03.156Z,5784.00
2019-05-14T09:24:03.662Z,5212.00
2019-05-14T09:25:04.103Z,4628.00
2019-05-14T09:26:04.622Z,3748.00
2019-05-14T09:27:05.580Z,3392.00
2019-05-14T09:28:08.935Z,1204.00
2019-05-14T09:29:19.602Z,3264.00
2019-05-14T09:30:18.369Z,1520.00
2019-05-14T09:31:19.942Z,2396.00
2019-05-14T09:32:20.573Z,2908.00
2019-05-14T09:33:24.293Z,5224.00
2019-05-14T09:34:24.930Z,3316.00
2019-05-14T09:35:25.396Z,3344.00
2019-05-14T09:36:28.708Z,3460.00
2019-05-14T09:38:44.993Z,3296.00
2019-05-14T09:39:54.037Z,2004.00
2019-05-14T09:41:08.048Z,3100.00
2019-05-14T09:42:00.914Z,1944.00
2019-05-14T09:43:10.029Z,2300.00
2019-05-14T09:44:10.479Z,2860.00
2019-05-14T09:45:11.999Z,2744.00
2019-05-14T09:46:12.445Z,2664.00
2019-05-14T09:47:33.978Z,4204.00
2019-05-14T09:48:34.440Z,2044.00
2019-05-14T09:49:43.563Z,1412.00
2019-05-14T09:50:44.010Z,1648.00
2019-05-14T09:51:48.742Z,1216.00
2019-05-14T09:52:49.504Z,1552.00
2019-05-14T09:53:58.993Z,1916.00
2019-05-14T09:54:59.531Z,3328.00
2019-05-14T09:56:00.025Z,3072.00
2019-05-14T09:57:00.467Z,2256.00
2019-05-14T09:58:00.923Z,1108.00
2019-05-14T09:59:01.354Z,1036.00
2019-05-14T10:00:01.852Z,1604.00
2019-05-14T10:01:02.314Z,4828.00
2019-05-14T10:02:03.824Z,5596.00
2019-05-14T10:03:04.262Z,5236.00
2019-05-14T10:04:04.757Z,5732.00
2019-05-14T10:05:05.276Z,5632.00
2019-05-14T10:06:05.825Z,5584.00
2019-05-14T10:07:08.523Z,5680.00
2019-05-14T10:08:09.289Z,5368.00
2019-05-14T10:09:09.737Z,4372.00
2019-05-14T10:10:10.217Z,4176.00
2019-05-14T10:11:10.681Z,3620.00
2019-05-14T10:12:11.153Z,5540.00
2019-05-14T10:13:11.587Z,3572.00
2019-05-14T10:14:13.116Z,3720.00
2019-05-14T10:15:13.544Z,4388.00
2019-05-14T10:16:14.084Z,5964.00
2019-05-14T10:17:14.509Z,4132.00
2019-05-14T10:18:14.990Z,5760.00
2019-05-14T10:19:15.424Z,4672.00
2019-05-14T10:20:32.143Z,4032.00
2019-05-14T10:21:22.358Z,4012.00
2019-05-14T10:22:22.894Z,4076.00
2019-05-14T10:23:23.320Z,4028.00
2019-05-14T10:24:23.850Z,3988.00
2019-05-14T10:25:24.283Z,2144.00
2019-05-14T10:26:24.802Z,4120.00
2019-05-14T10:27:25.240Z,4008.00
2019-05-14T10:28:25.703Z,4376.00
2019-05-14T10:29:28.477Z,4328.00
2019-05-14T10:30:29.189Z,4432.00
2019-05-14T10:31:29.651Z,4028.00
2019-05-14T10:32:30.243Z,3752.00
2019-05-14T10:33:30.738Z,3804.00
2019-05-14T10:34:31.289Z,3936.00
2019-05-14T10:35:31.738Z,3944.00
2019-05-14T10:36:34.205Z,4204.00
2019-05-14T10:37:34.657Z,3988.00
2019-05-14T10:38:35.118Z,3852.00
2019-05-14T10:39:35.559Z,3964.00
2019-05-14T10:40:38.233Z,4064.00
2019-05-14T10:41:39.064Z,3972.00
2019-05-14T10:42:40.502Z,3988.00
2019-05-14T10:43:41.167Z,3944.00
2019-05-14T10:44:41.620Z,3996.00
2019-05-14T10:45:42.060Z,4048.00
2019-05-14T10:46:43.547Z,4016.00
2019-05-14T10:47:43.977Z,4216.00
2019-05-14T10:48:44.415Z,4032.00
2019-05-14T10:49:44.853Z,4220.00
2019-05-14T10:50:56.394Z,4632.00
2019-05-14T10:51:51.733Z,5152.00
2019-05-14T10:52:52.174Z,5544.00
2019-05-14T10:53:52.603Z,4468.00
2019-05-14T10:54:56.049Z,4128.00
2019-05-14T10:55:58.279Z,4932.00
2019-05-14T10:56:59.898Z,5944.00
2019-05-14T10:58:00.326Z,6312.00
2019-05-14T10:59:00.753Z,6244.00
2019-05-14T11:00:01.199Z,6692.00
2019-05-14T11:01:01.662Z,6280.00
2019-05-14T11:02:02.099Z,5560.00
2019-05-14T11:03:04.544Z,6316.00
2019-05-14T11:04:04.980Z,6760.00
2019-05-14T11:05:05.415Z,6052.00
2019-05-14T11:06:05.865Z,4920.00
2019-05-14T11:07:06.309Z,4184.00
2019-05-14T11:08:11.761Z,3936.00
2019-05-14T11:09:13.160Z,3648.00
2019-05-14T11:10:13.589Z,3540.00
2019-05-14T11:11:14.056Z,3696.00
2019-05-14T11:12:14.493Z,4472.00
2019-05-14T11:13:14.984Z,4156.00
2019-05-14T11:14:15.411Z,4040.00
2019-05-14T11:15:15.843Z,4312.00
2019-05-14T11:16:18.781Z,4688.00
2019-05-14T11:17:19.866Z,5784.00
2019-05-14T11:18:20.378Z,5688.00
2019-05-14T11:19:20.818Z,5760.00
2019-05-14T11:20:21.268Z,5952.00
2019-05-14T11:21:26.120Z,4588.00
2019-05-14T11:22:28.911Z,4016.00
2019-05-14T11:23:30.029Z,3988.00
2019-05-14T11:24:30.570Z,4800.00
2019-05-14T11:25:31.018Z,4568.00
2019-05-14T11:26:31.571Z,4652.00
2019-05-14T11:27:31.999Z,4756.00
2019-05-14T11:28:32.484Z,2476.00
2019-05-14T11:29:32.951Z,3012.00
2019-05-14T11:30:33.524Z,3404.00
2019-05-14T11:31:34.418Z,3532.00
2019-05-14T11:32:35.295Z,3400.00
2019-05-14T11:33:35.772Z,3344.00
2019-05-14T11:34:38.777Z,3372.00
2019-05-14T11:35:39.648Z,3436.00
2019-05-14T11:36:40.128Z,3500.00
2019-05-14T11:37:41.527Z,4256.00
2019-05-14T11:38:42.079Z,4548.00
2019-05-14T11:39:42.517Z,5044.00
2019-05-14T11:40:42.947Z,5452.00
2019-05-14T11:41:43.394Z,5376.00
2019-05-14T11:42:43.824Z,5852.00
2019-05-14T11:43:44.319Z,6032.00
2019-05-14T11:44:44.776Z,5412.00
2019-05-14T11:45:48.275Z,5800.00
2019-05-14T11:46:57.087Z,5196.00
2019-05-14T11:47:55.633Z,4592.00
2019-05-14T11:48:59.395Z,4192.00
2019-05-14T11:50:00.129Z,2840.00
2019-05-14T11:51:00.575Z,4340.00
2019-05-14T11:52:07.797Z,4232.00
2019-05-14T11:53:08.473Z,4212.00
2019-05-14T11:54:09.597Z,4208.00
2019-05-14T11:55:10.096Z,4252.00
2019-05-14T11:56:10.609Z,4432.00
2019-05-14T11:57:11.868Z,4640.00
2019-05-14T11:58:12.448Z,4168.00
2019-05-14T11:59:12.886Z,4164.00
2019-05-14T12:00:13.330Z,3580.00
2019-05-14T12:01:13.759Z,4376.00
2019-05-14T12:02:14.241Z,4164.00
2019-05-14T12:03:14.704Z,4296.00
2019-05-14T12:04:15.158Z,4040.00
2019-05-14T12:05:15.585Z,3760.00
2019-05-14T12:06:18.389Z,3688.00
2019-05-14T12:07:19.118Z,4148.00
2019-05-14T12:08:19.548Z,4252.00
2019-05-14T12:09:19.980Z,4564.00
2019-05-14T12:10:21.430Z,2448.00
2019-05-14T12:11:22.357Z,2748.00
2019-05-14T12:12:22.849Z,6480.00
2019-05-14T12:13:23.282Z,7508.00
2019-05-14T12:14:23.755Z,8096.00
2019-05-14T12:15:24.210Z,7676.00
2019-05-14T12:16:24.639Z,4292.00
2019-05-14T12:17:25.099Z,4804.00
2019-05-14T12:18:25.590Z,5924.00
2019-05-14T12:19:28.180Z,6708.00
2019-05-14T12:20:29.689Z,6304.00
2019-05-14T12:21:30.292Z,5660.00
2019-05-14T12:22:31.064Z,4740.00
2019-05-14T12:23:31.505Z,5136.00
2019-05-14T12:24:31.965Z,4924.00
2019-05-14T12:25:32.495Z,5448.00
2019-05-14T12:26:33.227Z,3624.00
2019-05-14T12:27:33.788Z,2712.00
2019-05-14T12:28:34.245Z,2044.00
2019-05-14T12:29:34.678Z,1880.00
2019-05-14T12:30:39.539Z,2340.00
2019-05-14T12:31:40.183Z,2248.00
2019-05-14T12:32:43.947Z,2276.00
2019-05-14T12:33:44.375Z,2656.00
2019-05-14T12:34:44.824Z,2604.00
2019-05-14T12:35:45.264Z,2780.00
2019-05-14T12:36:49.193Z,2864.00
2019-05-14T12:37:49.885Z,4152.00
2019-05-14T12:38:50.357Z,3188.00
2019-05-14T12:39:50.797Z,3308.00
2019-05-14T12:40:51.241Z,2736.00
2019-05-14T12:41:52.729Z,1832.00
2019-05-14T12:42:53.194Z,2444.00
2019-05-14T12:43:53.631Z,1516.00
2019-05-14T12:44:54.141Z,1428.00
2019-05-14T12:45:54.572Z,1432.00
2019-05-14T12:46:55.018Z,2548.00
2019-05-14T12:48:02.541Z,2680.00
2019-05-14T12:49:02.979Z,2792.00
2019-05-14T12:50:05.500Z,2800.00
2019-05-14T12:51:08.489Z,3284.00
2019-05-14T12:52:19.097Z,4924.00
2019-05-14T12:53:15.810Z,7644.00
2019-05-14T12:54:19.735Z,6780.00
2019-05-14T12:55:20.452Z,6288.00
2019-05-14T12:56:20.894Z,3624.00
2019-05-14T12:57:21.343Z,3176.00
2019-05-14T12:58:22.789Z,3040.00
2019-05-14T12:59:23.419Z,3184.00
2019-05-14T13:00:23.896Z,3932.00
2019-05-14T13:01:24.315Z,5508.00
2019-05-14T13:02:24.782Z,3428.00
2019-05-14T13:03:25.208Z,2448.00
2019-05-14T13:04:28.491Z,2784.00
2019-05-14T13:05:29.533Z,5272.00